sensor_id;sensor_type;location;lat;lon;timestamp;P1;durP1;ratioP1;P2;durP2;ratioP2
20621;SDS011;10470;42.670;23.354;2023-05-07T00:01:37;18.43;;;11.77;;
20621;SDS011;10470;42.670;23.354;2023-05-07T00:04:15;15.50;;;11.33;;
20621;SDS011;10470;42.670;23.354;2023-05-07T00:06:54;18.07;;;13.07;;
20621;SDS011;10470;42.670;23.354;2023-05-07T00:09:33;18.87;;;13.03;;
20621;SDS011;10470;42.670;23.354;2023-05-07T00:12:12;16.63;;;11.87;;
20621;SDS011;10470;42.670;23.354;2023-05-07T00:14:52;19.20;;;12.47;;
20621;SDS011;10470;42.670;23.354;2023-05-07T00:17:33;18.67;;;12.40;;
20621;SDS011;10470;42.670;23.354;2023-05-07T00:20:12;18.47;;;12.07;;
20621;SDS011;10470;42.670;23.354;2023-05-07T00:22:52;17.07;;;12.10;;
20621;SDS011;10470;42.670;23.354;2023-05-07T00:25:31;16.50;;;12.30;;
20621;SDS011;10470;42.670;23.354;2023-05-07T00:28:12;16.60;;;11.60;;
20621;SDS011;10470;42.670;23.354;2023-05-07T00:30:53;15.70;;;11.23;;
20621;SDS011;10470;42.670;23.354;2023-05-07T00:33:33;16.50;;;11.83;;
20621;SDS011;10470;42.670;23.354;2023-05-07T00:36:13;17.40;;;11.60;;
20621;SDS011;10470;42.670;23.354;2023-05-07T00:38:54;16.87;;;11.20;;
20621;SDS011;10470;42.670;23.354;2023-05-07T00:41:34;20.50;;;11.83;;
20621;SDS011;10470;42.670;23.354;2023-05-07T00:44:17;16.67;;;10.80;;
20621;SDS011;10470;42.670;23.354;2023-05-07T00:46:57;15.23;;;11.13;;
20621;SDS011;10470;42.670;23.354;2023-05-07T00:49:39;17.43;;;11.67;;
20621;SDS011;10470;42.670;23.354;2023-05-07T00:52:20;15.37;;;10.70;;
20621;SDS011;10470;42.670;23.354;2023-05-07T00:55:03;16.33;;;11.53;;
20621;SDS011;10470;42.670;23.354;2023-05-07T00:57:44;14.63;;;11.13;;
20621;SDS011;10470;42.670;23.354;2023-05-07T01:00:26;16.10;;;11.07;;
20621;SDS011;10470;42.670;23.354;2023-05-07T01:03:07;17.60;;;11.33;;
20621;SDS011;10470;42.670;23.354;2023-05-07T01:05:49;17.00;;;11.17;;
20621;SDS011;10470;42.670;23.354;2023-05-07T01:08:32;17.07;;;11.40;;
20621;SDS011;10470;42.670;23.354;2023-05-07T01:11:06;13.37;;;10.70;;
20621;SDS011;10470;42.670;23.354;2023-05-07T01:13:49;16.13;;;11.03;;
20621;SDS011;10470;42.670;23.354;2023-05-07T01:16:32;14.53;;;11.03;;
20621;SDS011;10470;42.670;23.354;2023-05-07T01:19:15;11.30;;;8.23;;
20621;SDS011;10470;42.670;23.354;2023-05-07T01:22:01;11.67;;;7.20;;
20621;SDS011;10470;42.670;23.354;2023-05-07T01:24:40;8.63;;;6.90;;
20621;SDS011;10470;42.670;23.354;2023-05-07T01:27:15;9.13;;;6.70;;
20621;SDS011;10470;42.670;23.354;2023-05-07T01:29:49;9.17;;;6.40;;
20621;SDS011;10470;42.670;23.354;2023-05-07T01:32:28;7.10;;;6.07;;
20621;SDS011;10470;42.670;23.354;2023-05-07T01:35:19;8.50;;;6.03;;
20621;SDS011;10470;42.670;23.354;2023-05-07T01:38:00;10.10;;;6.30;;
20621;SDS011;10470;42.670;23.354;2023-05-07T01:40:44;7.40;;;6.07;;
20621;SDS011;10470;42.670;23.354;2023-05-07T01:43:20;6.43;;;5.83;;
20621;SDS011;10470;42.670;23.354;2023-05-07T01:45:55;7.17;;;5.83;;
20621;SDS011;10470;42.670;23.354;2023-05-07T01:48:39;8.00;;;5.47;;
20621;SDS011;10470;42.670;23.354;2023-05-07T01:51:15;7.60;;;5.50;;
20621;SDS011;10470;42.670;23.354;2023-05-07T01:53:52;7.43;;;6.23;;
20621;SDS011;10470;42.670;23.354;2023-05-07T01:56:28;9.10;;;6.37;;
20621;SDS011;10470;42.670;23.354;2023-05-07T01:59:04;8.30;;;6.57;;
20621;SDS011;10470;42.670;23.354;2023-05-07T02:01:40;8.07;;;6.57;;
20621;SDS011;10470;42.670;23.354;2023-05-07T02:04:16;8.30;;;6.27;;
20621;SDS011;10470;42.670;23.354;2023-05-07T02:06:54;8.77;;;6.50;;
20621;SDS011;10470;42.670;23.354;2023-05-07T02:09:30;8.83;;;6.43;;
20621;SDS011;10470;42.670;23.354;2023-05-07T02:12:07;7.53;;;6.73;;
20621;SDS011;10470;42.670;23.354;2023-05-07T02:14:44;10.20;;;6.80;;
20621;SDS011;10470;42.670;23.354;2023-05-07T02:17:21;7.80;;;7.10;;
20621;SDS011;10470;42.670;23.354;2023-05-07T02:19:58;11.50;;;7.07;;
20621;SDS011;10470;42.670;23.354;2023-05-07T02:22:36;9.97;;;7.67;;
20621;SDS011;10470;42.670;23.354;2023-05-07T02:25:14;8.50;;;7.43;;
20621;SDS011;10470;42.670;23.354;2023-05-07T02:27:52;8.80;;;7.57;;
20621;SDS011;10470;42.670;23.354;2023-05-07T02:30:29;8.47;;;7.57;;
20621;SDS011;10470;42.670;23.354;2023-05-07T02:33:07;11.27;;;8.00;;
20621;SDS011;10470;42.670;23.354;2023-05-07T02:35:45;10.00;;;8.07;;
20621;SDS011;10470;42.670;23.354;2023-05-07T02:38:23;10.43;;;8.60;;
20621;SDS011;10470;42.670;23.354;2023-05-07T02:41:02;9.70;;;7.93;;
20621;SDS011;10470;42.670;23.354;2023-05-07T02:43:40;11.60;;;8.77;;
20621;SDS011;10470;42.670;23.354;2023-05-07T02:46:18;10.27;;;8.60;;
20621;SDS011;10470;42.670;23.354;2023-05-07T02:48:57;12.00;;;8.33;;
20621;SDS011;10470;42.670;23.354;2023-05-07T02:51:36;10.50;;;8.73;;
20621;SDS011;10470;42.670;23.354;2023-05-07T02:54:15;13.10;;;9.03;;
20621;SDS011;10470;42.670;23.354;2023-05-07T02:56:54;13.20;;;8.27;;
20621;SDS011;10470;42.670;23.354;2023-05-07T02:59:33;11.50;;;8.77;;
20621;SDS011;10470;42.670;23.354;2023-05-07T03:02:12;10.83;;;9.00;;
20621;SDS011;10470;42.670;23.354;2023-05-07T03:04:52;11.53;;;9.20;;
20621;SDS011;10470;42.670;23.354;2023-05-07T03:07:32;15.07;;;9.47;;
20621;SDS011;10470;42.670;23.354;2023-05-07T03:10:12;15.27;;;9.87;;
20621;SDS011;10470;42.670;23.354;2023-05-07T03:12:52;12.40;;;9.70;;
20621;SDS011;10470;42.670;23.354;2023-05-07T03:15:33;16.03;;;10.43;;
20621;SDS011;10470;42.670;23.354;2023-05-07T03:18:14;12.83;;;9.60;;
20621;SDS011;10470;42.670;23.354;2023-05-07T03:20:54;11.63;;;9.70;;
20621;SDS011;10470;42.670;23.354;2023-05-07T03:23:34;12.57;;;9.77;;
20621;SDS011;10470;42.670;23.354;2023-05-07T03:26:14;12.43;;;9.07;;
20621;SDS011;10470;42.670;23.354;2023-05-07T03:28:55;12.60;;;9.73;;
20621;SDS011;10470;42.670;23.354;2023-05-07T03:31:36;14.63;;;9.97;;
20621;SDS011;10470;42.670;23.354;2023-05-07T03:34:16;12.33;;;9.53;;
20621;SDS011;10470;42.670;23.354;2023-05-07T03:36:58;12.07;;;10.00;;
20621;SDS011;10470;42.670;23.354;2023-05-07T03:39:39;11.27;;;10.07;;
20621;SDS011;10470;42.670;23.354;2023-05-07T03:42:20;12.70;;;9.43;;
20621;SDS011;10470;42.670;23.354;2023-05-07T03:45:02;12.77;;;10.53;;
20621;SDS011;10470;42.670;23.354;2023-05-07T03:47:43;13.53;;;10.40;;
20621;SDS011;10470;42.670;23.354;2023-05-07T03:50:25;12.73;;;10.33;;
20621;SDS011;10470;42.670;23.354;2023-05-07T03:53:07;14.73;;;11.70;;
20621;SDS011;10470;42.670;23.354;2023-05-07T03:55:49;14.70;;;11.20;;
20621;SDS011;10470;42.670;23.354;2023-05-07T03:58:32;15.50;;;10.97;;
20621;SDS011;10470;42.670;23.354;2023-05-07T04:01:14;14.07;;;11.27;;
20621;SDS011;10470;42.670;23.354;2023-05-07T04:03:56;14.03;;;11.47;;
20621;SDS011;10470;42.670;23.354;2023-05-07T04:06:38;15.20;;;10.93;;
20621;SDS011;10470;42.670;23.354;2023-05-07T04:09:21;18.17;;;12.40;;
20621;SDS011;10470;42.670;23.354;2023-05-07T04:12:03;15.90;;;12.17;;
20621;SDS011;10470;42.670;23.354;2023-05-07T04:14:47;16.30;;;11.67;;
20621;SDS011;10470;42.670;23.354;2023-05-07T04:17:30;15.83;;;11.50;;
20621;SDS011;10470;42.670;23.354;2023-05-07T04:20:14;14.50;;;10.70;;
20621;SDS011;10470;42.670;23.354;2023-05-07T04:22:56;18.27;;;10.43;;
20621;SDS011;10470;42.670;23.354;2023-05-07T04:25:30;14.90;;;10.57;;
20621;SDS011;10470;42.670;23.354;2023-05-07T04:28:14;14.03;;;10.57;;
20621;SDS011;10470;42.670;23.354;2023-05-07T04:30:57;13.73;;;10.70;;
20621;SDS011;10470;42.670;23.354;2023-05-07T04:33:41;15.03;;;11.13;;
20621;SDS011;10470;42.670;23.354;2023-05-07T04:36:25;14.13;;;10.70;;
20621;SDS011;10470;42.670;23.354;2023-05-07T04:39:09;15.93;;;10.43;;
20621;SDS011;10470;42.670;23.354;2023-05-07T04:41:53;16.00;;;9.83;;
20621;SDS011;10470;42.670;23.354;2023-05-07T04:44:29;17.70;;;10.70;;
20621;SDS011;10470;42.670;23.354;2023-05-07T04:47:14;13.80;;;10.63;;
20621;SDS011;10470;42.670;23.354;2023-05-07T04:49:49;15.33;;;11.07;;
20621;SDS011;10470;42.670;23.354;2023-05-07T04:52:25;17.87;;;10.70;;
20621;SDS011;10470;42.670;23.354;2023-05-07T04:55:01;13.70;;;11.07;;
20621;SDS011;10470;42.670;23.354;2023-05-07T04:57:37;16.07;;;11.53;;
20621;SDS011;10470;42.670;23.354;2023-05-07T05:00:22;14.90;;;11.70;;
20621;SDS011;10470;42.670;23.354;2023-05-07T05:02:57;17.37;;;11.50;;
20621;SDS011;10470;42.670;23.354;2023-05-07T05:05:34;16.60;;;11.30;;
20621;SDS011;10470;42.670;23.354;2023-05-07T05:08:10;15.80;;;11.67;;
20621;SDS011;10470;42.670;23.354;2023-05-07T05:10:47;15.70;;;11.60;;
20621;SDS011;10470;42.670;23.354;2023-05-07T05:13:23;15.67;;;11.77;;
20621;SDS011;10470;42.670;23.354;2023-05-07T05:16:00;15.90;;;12.17;;
20621;SDS011;10470;42.670;23.354;2023-05-07T05:18:37;16.93;;;11.60;;
20621;SDS011;10470;42.670;23.354;2023-05-07T05:21:14;16.90;;;11.77;;
20621;SDS011;10470;42.670;23.354;2023-05-07T05:23:51;18.10;;;12.30;;
20621;SDS011;10470;42.670;23.354;2023-05-07T05:26:29;16.43;;;11.97;;
20621;SDS011;10470;42.670;23.354;2023-05-07T05:29:05;18.17;;;11.60;;
20621;SDS011;10470;42.670;23.354;2023-05-07T05:31:44;15.07;;;11.97;;
20621;SDS011;10470;42.670;23.354;2023-05-07T05:34:21;15.10;;;11.83;;
20621;SDS011;10470;42.670;23.354;2023-05-07T05:36:59;18.47;;;12.73;;
20621;SDS011;10470;42.670;23.354;2023-05-07T05:39:37;17.47;;;12.80;;
20621;SDS011;10470;42.670;23.354;2023-05-07T05:42:15;18.23;;;12.13;;
20621;SDS011;10470;42.670;23.354;2023-05-07T05:44:53;17.50;;;13.43;;
20621;SDS011;10470;42.670;23.354;2023-05-07T05:47:31;17.10;;;12.50;;
20621;SDS011;10470;42.670;23.354;2023-05-07T05:50:09;16.50;;;12.00;;
20621;SDS011;10470;42.670;23.354;2023-05-07T05:52:49;17.83;;;12.37;;
20621;SDS011;10470;42.670;23.354;2023-05-07T05:55:27;16.73;;;11.97;;
20621;SDS011;10470;42.670;23.354;2023-05-07T05:58:06;17.13;;;12.27;;
20621;SDS011;10470;42.670;23.354;2023-05-07T06:00:45;14.73;;;11.70;;
20621;SDS011;10470;42.670;23.354;2023-05-07T06:03:24;15.17;;;11.97;;
20621;SDS011;10470;42.670;23.354;2023-05-07T06:06:03;15.07;;;11.67;;
20621;SDS011;10470;42.670;23.354;2023-05-07T06:08:42;15.13;;;12.23;;
20621;SDS011;10470;42.670;23.354;2023-05-07T06:11:20;17.10;;;11.90;;
20621;SDS011;10470;42.670;23.354;2023-05-07T06:14:00;16.90;;;11.73;;
20621;SDS011;10470;42.670;23.354;2023-05-07T06:16:40;15.87;;;11.77;;
20621;SDS011;10470;42.670;23.354;2023-05-07T06:19:20;14.20;;;11.00;;
20621;SDS011;10470;42.670;23.354;2023-05-07T06:22:00;15.43;;;11.30;;
20621;SDS011;10470;42.670;23.354;2023-05-07T06:24:41;16.70;;;12.17;;
20621;SDS011;10470;42.670;23.354;2023-05-07T06:27:20;14.40;;;11.60;;
20621;SDS011;10470;42.670;23.354;2023-05-07T06:30:01;15.80;;;12.07;;
20621;SDS011;10470;42.670;23.354;2023-05-07T06:32:41;14.90;;;11.87;;
20621;SDS011;10470;42.670;23.354;2023-05-07T06:35:22;16.33;;;12.07;;
20621;SDS011;10470;42.670;23.354;2023-05-07T06:38:02;17.03;;;11.83;;
20621;SDS011;10470;42.670;23.354;2023-05-07T06:40:43;14.37;;;10.60;;
20621;SDS011;10470;42.670;23.354;2023-05-07T06:43:24;12.63;;;10.27;;
20621;SDS011;10470;42.670;23.354;2023-05-07T06:46:06;13.17;;;10.20;;
20621;SDS011;10470;42.670;23.354;2023-05-07T06:48:46;12.77;;;9.50;;
20621;SDS011;10470;42.670;23.354;2023-05-07T06:51:28;13.03;;;10.43;;
20621;SDS011;10470;42.670;23.354;2023-05-07T06:54:09;14.17;;;10.23;;
20621;SDS011;10470;42.670;23.354;2023-05-07T06:56:52;14.60;;;10.07;;
20621;SDS011;10470;42.670;23.354;2023-05-07T06:59:33;13.67;;;10.07;;
20621;SDS011;10470;42.670;23.354;2023-05-07T07:02:15;13.77;;;10.07;;
20621;SDS011;10470;42.670;23.354;2023-05-07T07:04:57;16.03;;;9.97;;
20621;SDS011;10470;42.670;23.354;2023-05-07T07:07:40;13.83;;;9.73;;
20621;SDS011;10470;42.670;23.354;2023-05-07T07:10:22;14.77;;;10.27;;
20621;SDS011;10470;42.670;23.354;2023-05-07T07:13:05;13.23;;;9.70;;
20621;SDS011;10470;42.670;23.354;2023-05-07T07:15:46;13.77;;;10.27;;
20621;SDS011;10470;42.670;23.354;2023-05-07T07:18:30;15.30;;;9.67;;
20621;SDS011;10470;42.670;23.354;2023-05-07T07:21:12;14.00;;;10.30;;
20621;SDS011;10470;42.670;23.354;2023-05-07T07:23:54;13.37;;;10.33;;
20621;SDS011;10470;42.670;23.354;2023-05-07T07:26:37;12.77;;;9.70;;
20621;SDS011;10470;42.670;23.354;2023-05-07T07:29:21;14.13;;;11.03;;
20621;SDS011;10470;42.670;23.354;2023-05-07T07:32:04;15.73;;;10.93;;
20621;SDS011;10470;42.670;23.354;2023-05-07T07:34:47;15.57;;;11.03;;
20621;SDS011;10470;42.670;23.354;2023-05-07T07:37:30;14.50;;;11.50;;
20621;SDS011;10470;42.670;23.354;2023-05-07T07:40:15;16.47;;;11.93;;
20621;SDS011;10470;42.670;23.354;2023-05-07T07:42:58;17.67;;;11.90;;
20621;SDS011;10470;42.670;23.354;2023-05-07T07:45:42;16.57;;;12.17;;
20621;SDS011;10470;42.670;23.354;2023-05-07T07:48:26;16.83;;;11.50;;
20621;SDS011;10470;42.670;23.354;2023-05-07T07:51:10;16.97;;;11.63;;
20621;SDS011;10470;42.670;23.354;2023-05-07T07:53:54;14.93;;;11.00;;
20621;SDS011;10470;42.670;23.354;2023-05-07T07:56:29;14.70;;;11.13;;
20621;SDS011;10470;42.670;23.354;2023-05-07T07:59:04;12.10;;;10.63;;
20621;SDS011;10470;42.670;23.354;2023-05-07T08:01:48;14.97;;;11.27;;
20621;SDS011;10470;42.670;23.354;2023-05-07T08:04:24;14.93;;;11.30;;
20621;SDS011;10470;42.670;23.354;2023-05-07T08:06:59;14.10;;;11.20;;
20621;SDS011;10470;42.670;23.354;2023-05-07T08:09:36;14.77;;;11.20;;
20621;SDS011;10470;42.670;23.354;2023-05-07T08:12:21;16.47;;;11.40;;
20621;SDS011;10470;42.670;23.354;2023-05-07T08:14:57;12.87;;;11.40;;
20621;SDS011;10470;42.670;23.354;2023-05-07T08:17:33;13.93;;;11.03;;
20621;SDS011;10470;42.670;23.354;2023-05-07T08:20:08;13.97;;;10.50;;
20621;SDS011;10470;42.670;23.354;2023-05-07T08:22:44;12.57;;;10.43;;
20621;SDS011;10470;42.670;23.354;2023-05-07T08:25:21;13.57;;;9.77;;
20621;SDS011;10470;42.670;23.354;2023-05-07T08:27:57;14.10;;;10.47;;
20621;SDS011;10470;42.670;23.354;2023-05-07T08:30:34;14.60;;;10.33;;
20621;SDS011;10470;42.670;23.354;2023-05-07T08:33:10;13.83;;;9.80;;
20621;SDS011;10470;42.670;23.354;2023-05-07T08:35:47;19.80;;;10.17;;
20621;SDS011;10470;42.670;23.354;2023-05-07T08:38:24;15.43;;;10.20;;
20621;SDS011;10470;42.670;23.354;2023-05-07T08:41:01;11.10;;;9.07;;
20621;SDS011;10470;42.670;23.354;2023-05-07T08:43:38;12.80;;;8.30;;
20621;SDS011;10470;42.670;23.354;2023-05-07T08:46:17;9.80;;;8.20;;
20621;SDS011;10470;42.670;23.354;2023-05-07T08:49:04;9.97;;;7.73;;
20621;SDS011;10470;42.670;23.354;2023-05-07T08:51:41;8.07;;;6.77;;
20621;SDS011;10470;42.670;23.354;2023-05-07T08:54:18;10.67;;;7.23;;
20621;SDS011;10470;42.670;23.354;2023-05-07T08:56:56;8.63;;;6.60;;
20621;SDS011;10470;42.670;23.354;2023-05-07T08:59:34;8.10;;;6.20;;
20621;SDS011;10470;42.670;23.354;2023-05-07T09:02:14;8.43;;;5.77;;
20621;SDS011;10470;42.670;23.354;2023-05-07T09:04:53;6.63;;;5.97;;
20621;SDS011;10470;42.670;23.354;2023-05-07T09:07:31;10.73;;;7.63;;
20621;SDS011;10470;42.670;23.354;2023-05-07T09:10:10;9.93;;;7.03;;
20621;SDS011;10470;42.670;23.354;2023-05-07T09:12:49;9.53;;;8.00;;
20621;SDS011;10470;42.670;23.354;2023-05-07T09:15:28;9.43;;;6.97;;
20621;SDS011;10470;42.670;23.354;2023-05-07T09:18:08;8.83;;;7.10;;
20621;SDS011;10470;42.670;23.354;2023-05-07T09:20:46;9.40;;;7.23;;
20621;SDS011;10470;42.670;23.354;2023-05-07T09:23:27;8.57;;;7.37;;
20621;SDS011;10470;42.670;23.354;2023-05-07T09:26:06;7.97;;;7.00;;
20621;SDS011;10470;42.670;23.354;2023-05-07T09:28:56;8.27;;;6.77;;
20621;SDS011;10470;42.670;23.354;2023-05-07T09:31:38;9.13;;;6.80;;
20621;SDS011;10470;42.670;23.354;2023-05-07T09:34:16;8.10;;;6.73;;
20621;SDS011;10470;42.670;23.354;2023-05-07T09:36:58;6.80;;;6.00;;
20621;SDS011;10470;42.670;23.354;2023-05-07T09:42:22;6.90;;;6.23;;
20621;SDS011;10470;42.670;23.354;2023-05-07T09:45:08;7.57;;;5.90;;
20621;SDS011;10470;42.670;23.354;2023-05-07T09:47:49;6.93;;;5.80;;
20621;SDS011;10470;42.670;23.354;2023-05-07T09:50:32;7.53;;;5.60;;
20621;SDS011;10470;42.670;23.354;2023-05-07T09:53:20;5.67;;;5.07;;
20621;SDS011;10470;42.670;23.354;2023-05-07T09:56:02;6.07;;;5.03;;
20621;SDS011;10470;42.670;23.354;2023-05-07T09:58:42;7.47;;;5.03;;
20621;SDS011;10470;42.670;23.354;2023-05-07T10:01:23;6.53;;;4.97;;
20621;SDS011;10470;42.670;23.354;2023-05-07T10:04:04;7.63;;;4.90;;
20621;SDS011;10470;42.670;23.354;2023-05-07T10:06:46;5.30;;;4.60;;
20621;SDS011;10470;42.670;23.354;2023-05-07T10:09:27;7.00;;;4.67;;
20621;SDS011;10470;42.670;23.354;2023-05-07T10:12:08;8.03;;;5.10;;
20621;SDS011;10470;42.670;23.354;2023-05-07T10:14:49;4.97;;;4.40;;
20621;SDS011;10470;42.670;23.354;2023-05-07T10:17:32;6.03;;;4.30;;
20621;SDS011;10470;42.670;23.354;2023-05-07T10:20:13;5.67;;;4.43;;
20621;SDS011;10470;42.670;23.354;2023-05-07T10:22:55;5.70;;;4.27;;
20621;SDS011;10470;42.670;23.354;2023-05-07T10:25:37;4.60;;;4.20;;
20621;SDS011;10470;42.670;23.354;2023-05-07T10:28:18;4.43;;;4.03;;
20621;SDS011;10470;42.670;23.354;2023-05-07T10:31:08;5.70;;;4.07;;
20621;SDS011;10470;42.670;23.354;2023-05-07T10:33:54;6.90;;;5.67;;
20621;SDS011;10470;42.670;23.354;2023-05-07T10:36:36;4.53;;;4.10;;
20621;SDS011;10470;42.670;23.354;2023-05-07T10:39:19;4.93;;;3.90;;
20621;SDS011;10470;42.670;23.354;2023-05-07T10:42:11;5.20;;;3.63;;
20621;SDS011;10470;42.670;23.354;2023-05-07T10:44:53;5.07;;;3.80;;
20621;SDS011;10470;42.670;23.354;2023-05-07T10:47:36;6.07;;;4.07;;
20621;SDS011;10470;42.670;23.354;2023-05-07T10:50:50;4.13;;;3.70;;
20621;SDS011;10470;42.670;23.354;2023-05-07T10:54:25;4.67;;;4.10;;
20621;SDS011;10470;42.670;23.354;2023-05-07T10:57:40;4.50;;;4.10;;
20621;SDS011;10470;42.670;23.354;2023-05-07T11:03:04;4.67;;;3.83;;
20621;SDS011;10470;42.670;23.354;2023-05-07T11:06:08;5.43;;;3.93;;
20621;SDS011;10470;42.670;23.354;2023-05-07T11:08:57;4.60;;;4.00;;
20621;SDS011;10470;42.670;23.354;2023-05-07T11:11:45;4.30;;;3.90;;
20621;SDS011;10470;42.670;23.354;2023-05-07T11:17:26;4.97;;;3.80;;
20621;SDS011;10470;42.670;23.354;2023-05-07T11:20:10;4.30;;;3.90;;
20621;SDS011;10470;42.670;23.354;2023-05-07T11:22:54;4.07;;;3.73;;
20621;SDS011;10470;42.670;23.354;2023-05-07T11:25:39;5.07;;;3.90;;
20621;SDS011;10470;42.670;23.354;2023-05-07T11:28:23;6.17;;;3.73;;
20621;SDS011;10470;42.670;23.354;2023-05-07T11:31:09;4.43;;;4.03;;
20621;SDS011;10470;42.670;23.354;2023-05-07T11:33:52;6.40;;;3.53;;
20621;SDS011;10470;42.670;23.354;2023-05-07T11:36:41;4.53;;;3.90;;
20621;SDS011;10470;42.670;23.354;2023-05-07T11:39:41;6.93;;;3.87;;
20621;SDS011;10470;42.670;23.354;2023-05-07T11:45:19;7.27;;;4.33;;
20621;SDS011;10470;42.670;23.354;2023-05-07T11:48:09;5.93;;;3.50;;
20621;SDS011;10470;42.670;23.354;2023-05-07T11:53:40;4.37;;;4.00;;
20621;SDS011;10470;42.670;23.354;2023-05-07T11:56:25;4.47;;;3.87;;
20621;SDS011;10470;42.670;23.354;2023-05-07T11:59:10;4.70;;;3.60;;
20621;SDS011;10470;42.670;23.354;2023-05-07T12:01:56;4.77;;;4.03;;
20621;SDS011;10470;42.670;23.354;2023-05-07T12:04:42;4.53;;;4.10;;
20621;SDS011;10470;42.670;23.354;2023-05-07T12:07:28;6.47;;;4.43;;
20621;SDS011;10470;42.670;23.354;2023-05-07T12:10:04;4.47;;;4.07;;
20621;SDS011;10470;42.670;23.354;2023-05-07T12:12:50;4.03;;;3.73;;
20621;SDS011;10470;42.670;23.354;2023-05-07T12:15:27;4.03;;;3.63;;
20621;SDS011;10470;42.670;23.354;2023-05-07T12:18:03;4.50;;;4.10;;
20621;SDS011;10470;42.670;23.354;2023-05-07T12:20:50;5.60;;;4.00;;
20621;SDS011;10470;42.670;23.354;2023-05-07T12:23:36;5.50;;;4.10;;
20621;SDS011;10470;42.670;23.354;2023-05-07T12:26:12;4.50;;;3.67;;
20621;SDS011;10470;42.670;23.354;2023-05-07T12:28:50;4.30;;;4.00;;
20621;SDS011;10470;42.670;23.354;2023-05-07T12:31:26;4.77;;;4.37;;
20621;SDS011;10470;42.670;23.354;2023-05-07T12:34:03;7.03;;;6.33;;
20621;SDS011;10470;42.670;23.354;2023-05-07T12:36:40;6.10;;;4.00;;
20621;SDS011;10470;42.670;23.354;2023-05-07T12:39:16;4.07;;;3.77;;
20621;SDS011;10470;42.670;23.354;2023-05-07T12:41:58;3.90;;;3.50;;
20621;SDS011;10470;42.670;23.354;2023-05-07T12:44:44;3.27;;;2.93;;
20621;SDS011;10470;42.670;23.354;2023-05-07T12:47:30;3.23;;;2.93;;
20621;SDS011;10470;42.670;23.354;2023-05-07T12:50:08;6.83;;;3.30;;
20621;SDS011;10470;42.670;23.354;2023-05-07T12:52:45;3.67;;;3.00;;
20621;SDS011;10470;42.670;23.354;2023-05-07T12:55:23;2.90;;;2.60;;
20621;SDS011;10470;42.670;23.354;2023-05-07T12:58:01;3.53;;;2.70;;
20621;SDS011;10470;42.670;23.354;2023-05-07T13:00:39;3.37;;;2.90;;
20621;SDS011;10470;42.670;23.354;2023-05-07T13:03:25;3.10;;;2.77;;
20621;SDS011;10470;42.670;23.354;2023-05-07T13:06:07;3.43;;;2.90;;
20621;SDS011;10470;42.670;23.354;2023-05-07T13:08:55;3.00;;;2.80;;
20621;SDS011;10470;42.670;23.354;2023-05-07T13:11:33;3.00;;;2.80;;
20621;SDS011;10470;42.670;23.354;2023-05-07T13:14:13;3.27;;;2.90;;
20621;SDS011;10470;42.670;23.354;2023-05-07T13:16:51;3.00;;;2.77;;
20621;SDS011;10470;42.670;23.354;2023-05-07T13:19:30;3.67;;;2.60;;
20621;SDS011;10470;42.670;23.354;2023-05-07T13:22:09;3.13;;;2.93;;
20621;SDS011;10470;42.670;23.354;2023-05-07T13:24:48;3.10;;;2.60;;
20621;SDS011;10470;42.670;23.354;2023-05-07T13:27:27;3.20;;;2.80;;
20621;SDS011;10470;42.670;23.354;2023-05-07T13:30:06;2.70;;;2.50;;
20621;SDS011;10470;42.670;23.354;2023-05-07T13:32:46;3.13;;;2.90;;
20621;SDS011;10470;42.670;23.354;2023-05-07T13:35:25;3.90;;;3.30;;
20621;SDS011;10470;42.670;23.354;2023-05-07T13:38:05;4.03;;;3.63;;
20621;SDS011;10470;42.670;23.354;2023-05-07T13:40:44;3.40;;;3.10;;
20621;SDS011;10470;42.670;23.354;2023-05-07T13:43:24;3.40;;;2.87;;
20621;SDS011;10470;42.670;23.354;2023-05-07T13:46:04;3.87;;;2.90;;
20621;SDS011;10470;42.670;23.354;2023-05-07T13:48:45;3.30;;;2.97;;
20621;SDS011;10470;42.670;23.354;2023-05-07T13:51:25;3.00;;;2.70;;
20621;SDS011;10470;42.670;23.354;2023-05-07T13:54:05;2.77;;;2.57;;
20621;SDS011;10470;42.670;23.354;2023-05-07T13:56:45;4.43;;;3.00;;
20621;SDS011;10470;42.670;23.354;2023-05-07T13:59:25;4.80;;;2.87;;
20621;SDS011;10470;42.670;23.354;2023-05-07T14:02:06;2.80;;;2.60;;
20621;SDS011;10470;42.670;23.354;2023-05-07T14:04:47;2.73;;;2.53;;
20621;SDS011;10470;42.670;23.354;2023-05-07T14:07:28;2.73;;;2.53;;
20621;SDS011;10470;42.670;23.354;2023-05-07T14:10:09;2.80;;;2.60;;
20621;SDS011;10470;42.670;23.354;2023-05-07T14:12:50;3.07;;;2.77;;
20621;SDS011;10470;42.670;23.354;2023-05-07T14:15:31;3.20;;;2.63;;
20621;SDS011;10470;42.670;23.354;2023-05-07T14:18:12;3.13;;;2.80;;
20621;SDS011;10470;42.670;23.354;2023-05-07T14:20:53;3.57;;;2.73;;
20621;SDS011;10470;42.670;23.354;2023-05-07T14:23:35;3.60;;;2.60;;
20621;SDS011;10470;42.670;23.354;2023-05-07T14:26:17;3.20;;;2.90;;
20621;SDS011;10470;42.670;23.354;2023-05-07T14:28:59;3.90;;;2.83;;
20621;SDS011;10470;42.670;23.354;2023-05-07T14:31:40;4.43;;;2.70;;
20621;SDS011;10470;42.670;23.354;2023-05-07T14:34:23;3.20;;;2.80;;
20621;SDS011;10470;42.670;23.354;2023-05-07T14:37:04;3.37;;;2.70;;
20621;SDS011;10470;42.670;23.354;2023-05-07T14:39:46;3.50;;;2.73;;
20621;SDS011;10470;42.670;23.354;2023-05-07T14:42:29;3.70;;;3.40;;
20621;SDS011;10470;42.670;23.354;2023-05-07T14:45:11;3.83;;;3.43;;
20621;SDS011;10470;42.670;23.354;2023-05-07T14:47:54;3.37;;;2.70;;
20621;SDS011;10470;42.670;23.354;2023-05-07T14:50:36;4.27;;;3.30;;
20621;SDS011;10470;42.670;23.354;2023-05-07T14:53:20;3.77;;;3.40;;
20621;SDS011;10470;42.670;23.354;2023-05-07T14:56:02;3.60;;;2.90;;
20621;SDS011;10470;42.670;23.354;2023-05-07T14:58:45;3.37;;;2.80;;
20621;SDS011;10470;42.670;23.354;2023-05-07T15:01:28;3.27;;;2.93;;
20621;SDS011;10470;42.670;23.354;2023-05-07T15:04:11;2.87;;;2.50;;
20621;SDS011;10470;42.670;23.354;2023-05-07T15:06:55;3.70;;;3.40;;
20621;SDS011;10470;42.670;23.354;2023-05-07T15:09:38;4.17;;;3.27;;
20621;SDS011;10470;42.670;23.354;2023-05-07T15:12:22;3.80;;;3.50;;
20621;SDS011;10470;42.670;23.354;2023-05-07T15:15:05;3.63;;;3.23;;
20621;SDS011;10470;42.670;23.354;2023-05-07T15:17:48;3.63;;;3.20;;
20621;SDS011;10470;42.670;23.354;2023-05-07T15:20:32;2.87;;;2.50;;
20621;SDS011;10470;42.670;23.354;2023-05-07T15:23:15;4.27;;;2.80;;
20621;SDS011;10470;42.670;23.354;2023-05-07T15:26:00;3.20;;;2.90;;
20621;SDS011;10470;42.670;23.354;2023-05-07T15:28:43;3.03;;;2.83;;
20621;SDS011;10470;42.670;23.354;2023-05-07T15:31:28;2.70;;;2.50;;
20621;SDS011;10470;42.670;23.354;2023-05-07T15:34:12;3.40;;;2.70;;
20621;SDS011;10470;42.670;23.354;2023-05-07T15:36:56;4.33;;;2.90;;
20621;SDS011;10470;42.670;23.354;2023-05-07T15:39:40;3.50;;;2.70;;
20621;SDS011;10470;42.670;23.354;2023-05-07T15:42:25;5.17;;;4.67;;
20621;SDS011;10470;42.670;23.354;2023-05-07T15:45:10;3.13;;;2.87;;
20621;SDS011;10470;42.670;23.354;2023-05-07T15:47:55;2.77;;;2.57;;
20621;SDS011;10470;42.670;23.354;2023-05-07T15:50:40;3.33;;;2.80;;
20621;SDS011;10470;42.670;23.354;2023-05-07T15:53:25;2.80;;;2.60;;
20621;SDS011;10470;42.670;23.354;2023-05-07T15:56:10;2.97;;;2.77;;
20621;SDS011;10470;42.670;23.354;2023-05-07T15:58:55;3.30;;;2.60;;